sensor_id;sensor_type;location;lat;lon;timestamp;pressure;altitude;pressure_sealevel;temperature;humidity
72560;BME280;62987;52.382;9.752;2023-01-26T00:01:42;101841.06;;;-2.49;100.00
72560;BME280;62987;52.382;9.752;2023-01-26T00:04:10;101842.84;;;-2.48;99.86
72560;BME280;62987;52.382;9.752;2023-01-26T00:06:38;101839.47;;;-2.44;99.65
72560;BME280;62987;52.382;9.752;2023-01-26T00:09:10;101843.72;;;-2.48;99.70
72560;BME280;62987;52.382;9.752;2023-01-26T00:11:39;101841.19;;;-2.45;99.26
72560;BME280;62987;52.382;9.752;2023-01-26T00:14:07;101839.28;;;-2.50;98.07
72560;BME280;62987;52.382;9.752;2023-01-26T00:16:36;101832.19;;;-2.56;97.69
72560;BME280;62987;52.382;9.752;2023-01-26T00:19:04;101827.09;;;-2.51;97.45
72560;BME280;62987;52.382;9.752;2023-01-26T00:21:32;101819.88;;;-2.61;97.88
72560;BME280;62987;52.382;9.752;2023-01-26T00:24:00;101810.19;;;-2.65;98.24
72560;BME280;62987;52.382;9.752;2023-01-26T00:26:28;101813.50;;;-2.72;97.94
72560;BME280;62987;52.382;9.752;2023-01-26T00:28:56;101812.41;;;-2.79;98.99
72560;BME280;62987;52.382;9.752;2023-01-26T00:31:25;101805.69;;;-2.72;99.39
72560;BME280;62987;52.382;9.752;2023-01-26T00:33:55;101807.59;;;-2.65;99.17
72560;BME280;62987;52.382;9.752;2023-01-26T00:36:24;101809.34;;;-2.66;98.64
72560;BME280;62987;52.382;9.752;2023-01-26T00:38:53;101800.66;;;-2.65;99.63
72560;BME280;62987;52.382;9.752;2023-01-26T00:41:21;101800.66;;;-2.66;98.98
72560;BME280;62987;52.382;9.752;2023-01-26T00:44:07;101786.88;;;-2.62;99.42
72560;BME280;62987;52.382;9.752;2023-01-26T00:46:38;101783.50;;;-2.58;100.00
72560;BME280;62987;52.382;9.752;2023-01-26T00:49:10;101778.84;;;-2.70;99.99
72560;BME280;62987;52.382;9.752;2023-01-26T00:51:38;101779.81;;;-2.66;100.00
72560;BME280;62987;52.382;9.752;2023-01-26T00:54:06;101781.38;;;-2.71;100.00
72560;BME280;62987;52.382;9.752;2023-01-26T00:56:34;101782.03;;;-2.80;100.00
72560;BME280;62987;52.382;9.752;2023-01-26T00:59:01;101777.28;;;-2.63;100.00
72560;BME280;62987;52.382;9.752;2023-01-26T01:01:31;101769.59;;;-2.60;100.00
72560;BME280;62987;52.382;9.752;2023-01-26T01:03:59;101756.47;;;-2.63;100.00
72560;BME280;62987;52.382;9.752;2023-01-26T01:06:28;101776.97;;;-2.44;100.00
72560;BME280;62987;52.382;9.752;2023-01-26T01:08:56;101774.06;;;-2.55;100.00
72560;BME280;62987;52.382;9.752;2023-01-26T01:11:24;101769.66;;;-2.57;100.00
72560;BME280;62987;52.382;9.752;2023-01-26T01:13:52;101770.19;;;-2.69;100.00
72560;BME280;62987;52.382;9.752;2023-01-26T01:16:20;101760.72;;;-2.65;100.00
72560;BME280;62987;52.382;9.752;2023-01-26T01:18:51;101752.84;;;-2.68;100.00
72560;BME280;62987;52.382;9.752;2023-01-26T01:21:21;101758.63;;;-2.78;100.00
72560;BME280;62987;52.382;9.752;2023-01-26T01:23:53;101768.25;;;-2.76;100.00
72560;BME280;62987;52.382;9.752;2023-01-26T01:26:21;101764.75;;;-2.76;100.00
72560;BME280;62987;52.382;9.752;2023-01-26T01:28:52;101764.03;;;-2.72;100.00
72560;BME280;62987;52.382;9.752;2023-01-26T01:31:21;101762.50;;;-2.64;100.00
72560;BME280;62987;52.382;9.752;2023-01-26T01:33:50;101762.50;;;-2.64;100.00
72560;BME280;62987;52.382;9.752;2023-01-26T01:36:18;101748.53;;;-2.68;100.00
72560;BME280;62987;52.382;9.752;2023-01-26T01:38:47;101761.00;;;-2.56;100.00
72560;BME280;62987;52.382;9.752;2023-01-26T01:41:18;101763.72;;;-2.53;100.00
72560;BME280;62987;52.382;9.752;2023-01-26T01:43:46;101745.13;;;-2.65;100.00
72560;BME280;62987;52.382;9.752;2023-01-26T01:46:19;101748.59;;;-2.66;100.00
72560;BME280;62987;52.382;9.752;2023-01-26T01:48:55;101750.41;;;-2.62;100.00
72560;BME280;62987;52.382;9.752;2023-01-26T01:51:30;101749.63;;;-2.60;100.00
72560;BME280;62987;52.382;9.752;2023-01-26T01:54:03;101729.50;;;-2.65;100.00
72560;BME280;62987;52.382;9.752;2023-01-26T01:56:36;101736.78;;;-2.54;100.00
72560;BME280;62987;52.382;9.752;2023-01-26T01:59:08;101729.75;;;-2.56;100.00
72560;BME280;62987;52.382;9.752;2023-01-26T02:01:37;101711.97;;;-2.72;100.00
72560;BME280;62987;52.382;9.752;2023-01-26T02:04:06;101714.75;;;-2.66;100.00
72560;BME280;62987;52.382;9.752;2023-01-26T02:06:40;101724.06;;;-2.74;100.00
72560;BME280;62987;52.382;9.752;2023-01-26T02:09:10;101725.09;;;-2.68;100.00
72560;BME280;62987;52.382;9.752;2023-01-26T02:12:02;101716.47;;;-2.65;100.00
72560;BME280;62987;52.382;9.752;2023-01-26T02:14:31;101717.28;;;-2.68;100.00
72560;BME280;62987;52.382;9.752;2023-01-26T02:17:01;101719.19;;;-2.62;100.00
72560;BME280;62987;52.382;9.752;2023-01-26T02:19:35;101719.91;;;-2.68;100.00
72560;BME280;62987;52.382;9.752;2023-01-26T02:22:10;101713.88;;;-2.65;100.00
72560;BME280;62987;52.382;9.752;2023-01-26T02:24:43;101716.31;;;-2.71;100.00
72560;BME280;62987;52.382;9.752;2023-01-26T02:27:12;101706.00;;;-2.68;100.00
72560;BME280;62987;52.382;9.752;2023-01-26T02:29:41;101701.63;;;-2.69;100.00
72560;BME280;62987;52.382;9.752;2023-01-26T02:32:09;101701.78;;;-2.63;100.00
72560;BME280;62987;52.382;9.752;2023-01-26T02:34:37;101702.63;;;-2.66;100.00
72560;BME280;62987;52.382;9.752;2023-01-26T02:37:11;101700.19;;;-2.58;100.00
72560;BME280;62987;52.382;9.752;2023-01-26T02:39:44;101695.84;;;-2.59;100.00
72560;BME280;62987;52.382;9.752;2023-01-26T02:42:18;101702.06;;;-2.54;100.00
72560;BME280;62987;52.382;9.752;2023-01-26T02:45:08;101705.50;;;-2.55;100.00
72560;BME280;62987;52.382;9.752;2023-01-26T02:47:37;101708.66;;;-2.65;100.00
72560;BME280;62987;52.382;9.752;2023-01-26T02:50:07;101699.06;;;-2.68;100.00
72560;BME280;62987;52.382;9.752;2023-01-26T02:52:35;101709.69;;;-2.60;100.00
72560;BME280;62987;52.382;9.752;2023-01-26T02:55:08;101699.44;;;-2.54;100.00
72560;BME280;62987;52.382;9.752;2023-01-26T02:57:58;101695.16;;;-2.52;100.00
72560;BME280;62987;52.382;9.752;2023-01-26T03:00:30;101695.31;;;-2.46;100.00
72560;BME280;62987;52.382;9.752;2023-01-26T03:03:00;101695.31;;;-2.46;100.00
72560;BME280;62987;52.382;9.752;2023-01-26T03:05:29;101696.91;;;-2.51;100.00
72560;BME280;62987;52.382;9.752;2023-01-26T03:07:57;101702.13;;;-2.51;100.00
72560;BME280;62987;52.382;9.752;2023-01-26T03:10:34;101670.50;;;-2.66;100.00
72560;BME280;62987;52.382;9.752;2023-01-26T03:13:03;101699.66;;;-2.47;100.00
72560;BME280;62987;52.382;9.752;2023-01-26T03:15:32;101627.63;;;-2.79;100.00
72560;BME280;62987;52.382;9.752;2023-01-26T03:18:13;101696.50;;;-2.35;100.00
72560;BME280;62987;52.382;9.752;2023-01-26T03:20:57;101700.72;;;-2.40;100.00
72560;BME280;62987;52.382;9.752;2023-01-26T03:23:43;101697.41;;;-2.33;100.00
72560;BME280;62987;52.382;9.752;2023-01-26T03:26:26;101694.94;;;-2.28;100.00
72560;BME280;62987;52.382;9.752;2023-01-26T03:29:13;101690.59;;;-2.28;100.00
72560;BME280;62987;52.382;9.752;2023-01-26T03:31:45;101694.94;;;-2.28;100.00
72560;BME280;62987;52.382;9.752;2023-01-26T03:34:13;101689.81;;;-2.24;100.00
72560;BME280;62987;52.382;9.752;2023-01-26T03:36:44;101688.25;;;-2.17;100.00
72560;BME280;62987;52.382;9.752;2023-01-26T03:39:14;101691.03;;;-2.11;100.00
72560;BME280;62987;52.382;9.752;2023-01-26T03:41:56;101685.84;;;-2.10;100.00
72560;BME280;62987;52.382;9.752;2023-01-26T03:44:43;101689.19;;;-2.14;100.00
72560;BME280;62987;52.382;9.752;2023-01-26T03:47:30;101689.09;;;-2.18;100.00
72560;BME280;62987;52.382;9.752;2023-01-26T03:50:18;101680.50;;;-2.16;100.00
72560;BME280;62987;52.382;9.752;2023-01-26T03:53:12;101663.00;;;-2.21;100.00
72560;BME280;62987;52.382;9.752;2023-01-26T03:56:01;101676.16;;;-2.15;100.00
72560;BME280;62987;52.382;9.752;2023-01-26T03:58:52;101677.09;;;-2.12;100.00
72560;BME280;62987;52.382;9.752;2023-01-26T04:01:25;101674.53;;;-2.10;100.00
72560;BME280;62987;52.382;9.752;2023-01-26T04:03:56;101666.63;;;-2.15;100.00
72560;BME280;62987;52.382;9.752;2023-01-26T04:06:45;101681.56;;;-2.08;100.00
72560;BME280;62987;52.382;9.752;2023-01-26T04:09:31;101673.66;;;-2.11;100.00
72560;BME280;62987;52.382;9.752;2023-01-26T04:12:25;101671.28;;;-2.02;100.00
72560;BME280;62987;52.382;9.752;2023-01-26T04:15:05;101665.13;;;-2.05;100.00
72560;BME280;62987;52.382;9.752;2023-01-26T04:17:52;101670.38;;;-2.04;100.00
72560;BME280;62987;52.382;9.752;2023-01-26T04:20:38;101665.16;;;-2.04;100.00
72560;BME280;62987;52.382;9.752;2023-01-26T04:23:23;101667.75;;;-2.04;100.00
72560;BME280;62987;52.382;9.752;2023-01-26T04:25:51;101664.22;;;-2.06;100.00
72560;BME280;62987;52.382;9.752;2023-01-26T04:28:19;101658.03;;;-2.11;100.00
72560;BME280;62987;52.382;9.752;2023-01-26T04:30:47;101658.19;;;-2.05;100.00
72560;BME280;62987;52.382;9.752;2023-01-26T04:33:17;101658.25;;;-2.02;100.00
72560;BME280;62987;52.382;9.752;2023-01-26T04:35:46;101651.44;;;-1.96;100.00
72560;BME280;62987;52.382;9.752;2023-01-26T04:38:15;101616.19;;;-2.17;100.00
72560;BME280;62987;52.382;9.752;2023-01-26T04:40:43;101648.81;;;-1.96;100.00
72560;BME280;62987;52.382;9.752;2023-01-26T04:43:11;101638.31;;;-1.99;100.00
72560;BME280;62987;52.382;9.752;2023-01-26T04:45:39;101643.53;;;-1.99;100.00
72560;BME280;62987;52.382;9.752;2023-01-26T04:48:07;101647.91;;;-1.98;100.00
72560;BME280;62987;52.382;9.752;2023-01-26T04:50:37;101646.13;;;-1.99;100.00
72560;BME280;62987;52.382;9.752;2023-01-26T04:53:06;101637.47;;;-1.98;100.00
72560;BME280;62987;52.382;9.752;2023-01-26T04:55:34;101647.06;;;-1.97;100.00
72560;BME280;62987;52.382;9.752;2023-01-26T04:58:02;101650.56;;;-1.97;100.00
72560;BME280;62987;52.382;9.752;2023-01-26T05:00:30;101653.19;;;-1.95;100.00
72560;BME280;62987;52.382;9.752;2023-01-26T05:03:00;101635.78;;;-1.96;100.00
72560;BME280;62987;52.382;9.752;2023-01-26T05:05:28;101644.59;;;-1.91;100.00
72560;BME280;62987;52.382;9.752;2023-01-26T05:07:57;101637.41;;;-2.02;100.00
72560;BME280;62987;52.382;9.752;2023-01-26T05:10:28;101637.38;;;-2.03;100.00
72560;BME280;62987;52.382;9.752;2023-01-26T05:13:14;101633.22;;;-1.95;100.00
72560;BME280;62987;52.382;9.752;2023-01-26T05:16:04;101631.13;;;-2.10;100.00
72560;BME280;62987;52.382;9.752;2023-01-26T05:18:44;101635.50;;;-2.09;100.00
72560;BME280;62987;52.382;9.752;2023-01-26T05:21:25;101635.66;;;-2.03;100.00
72560;BME280;62987;52.382;9.752;2023-01-26T05:23:56;101635.50;;;-2.09;100.00
72560;BME280;62987;52.382;9.752;2023-01-26T05:26:33;101644.34;;;-2.02;100.00
72560;BME280;62987;52.382;9.752;2023-01-26T05:29:04;101636.41;;;-2.07;100.00
72560;BME280;62987;52.382;9.752;2023-01-26T05:31:40;101633.50;;;-2.19;100.00
72560;BME280;62987;52.382;9.752;2023-01-26T05:34:09;101635.41;;;-2.12;100.00
72560;BME280;62987;52.382;9.752;2023-01-26T05:36:37;101634.72;;;-2.05;100.00
72560;BME280;62987;52.382;9.752;2023-01-26T05:39:07;101634.78;;;-2.03;100.00
72560;BME280;62987;52.382;9.752;2023-01-26T05:41:37;101628.72;;;-2.02;100.00
72560;BME280;62987;52.382;9.752;2023-01-26T05:44:24;101556.31;;;-2.51;100.00
72560;BME280;62987;52.382;9.752;2023-01-26T05:46:58;101643.50;;;-2.01;100.00
72560;BME280;62987;52.382;9.752;2023-01-26T05:49:53;101650.47;;;-2.00;100.00
72560;BME280;62987;52.382;9.752;2023-01-26T05:52:25;101653.19;;;-1.95;100.00
72560;BME280;62987;52.382;9.752;2023-01-26T05:54:55;101659.25;;;-1.96;100.00
72560;BME280;62987;52.382;9.752;2023-01-26T05:57:24;101657.47;;;-1.97;100.00
72560;BME280;62987;52.382;9.752;2023-01-26T05:59:56;101657.53;;;-1.96;100.00
72560;BME280;62987;52.382;9.752;2023-01-26T06:02:25;101650.47;;;-2.00;100.00
72560;BME280;62987;52.382;9.752;2023-01-26T06:04:54;101644.53;;;-1.94;100.00
72560;BME280;62987;52.382;9.752;2023-01-26T06:07:22;101657.47;;;-1.97;100.00
72560;BME280;62987;52.382;9.752;2023-01-26T06:10:22;101641.94;;;-1.93;100.00
72560;BME280;62987;52.382;9.752;2023-01-26T06:13:25;101656.09;;;-1.83;100.00
72560;BME280;62987;52.382;9.752;2023-01-26T06:16:05;101627.16;;;-1.94;100.00
72560;BME280;62987;52.382;9.752;2023-01-26T06:18:35;101643.13;;;-1.80;100.00
72560;BME280;62987;52.382;9.752;2023-01-26T06:21:04;101644.97;;;-1.76;100.00
72560;BME280;62987;52.382;9.752;2023-01-26T06:23:32;101641.38;;;-1.80;100.00
72560;BME280;62987;52.382;9.752;2023-01-26T06:26:03;101650.91;;;-1.82;100.00
72560;BME280;62987;52.382;9.752;2023-01-26T06:28:39;101649.22;;;-1.80;100.00
72560;BME280;62987;52.382;9.752;2023-01-26T06:31:08;101645.75;;;-1.79;100.00
72560;BME280;62987;52.382;9.752;2023-01-26T06:33:38;101650.19;;;-1.76;100.00
72560;BME280;62987;52.382;9.752;2023-01-26T06:36:10;101657.97;;;-1.78;100.00
72560;BME280;62987;52.382;9.752;2023-01-26T06:38:44;101657.16;;;-1.75;100.00
72560;BME280;62987;52.382;9.752;2023-01-26T06:41:15;101655.44;;;-1.73;100.00
72560;BME280;62987;52.382;9.752;2023-01-26T06:43:45;101664.09;;;-1.74;100.00
72560;BME280;62987;52.382;9.752;2023-01-26T06:46:14;101656.38;;;-1.71;100.00
72560;BME280;62987;52.382;9.752;2023-01-26T06:48:44;101656.41;;;-1.70;100.00
72560;BME280;62987;52.382;9.752;2023-01-26T06:51:44;101656.28;;;-1.74;100.00
72560;BME280;62987;52.382;9.752;2023-01-26T06:54:14;101652.97;;;-1.69;100.00
72560;BME280;62987;52.382;9.752;2023-01-26T06:57:20;101648.41;;;-1.77;100.00
72560;BME280;62987;52.382;9.752;2023-01-26T06:59:59;101646.66;;;-1.78;100.00
72560;BME280;62987;52.382;9.752;2023-01-26T07:03:07;101662.50;;;-1.69;100.00
72560;BME280;62987;52.382;9.752;2023-01-26T07:05:36;101657.31;;;-1.69;100.00
72560;BME280;62987;52.382;9.752;2023-01-26T07:08:05;101664.28;;;-1.67;100.00
72560;BME280;62987;52.382;9.752;2023-01-26T07:10:34;101606.16;;;-2.00;100.00
72560;BME280;62987;52.382;9.752;2023-01-26T07:13:04;101663.41;;;-1.69;100.00
72560;BME280;62987;52.382;9.752;2023-01-26T07:15:32;101675.69;;;-1.62;100.00
72560;BME280;62987;52.382;9.752;2023-01-26T07:18:00;101666.97;;;-1.64;100.00
72560;BME280;62987;52.382;9.752;2023-01-26T07:20:28;101666.97;;;-1.64;100.00
72560;BME280;62987;52.382;9.752;2023-01-26T07:22:58;101667.03;;;-1.61;100.00
72560;BME280;62987;52.382;9.752;2023-01-26T07:25:26;101660.88;;;-1.64;100.00
72560;BME280;62987;52.382;9.752;2023-01-26T07:27:55;101663.63;;;-1.58;100.00
72560;BME280;62987;52.382;9.752;2023-01-26T07:30:25;101668.94;;;-1.53;100.00
72560;BME280;62987;52.382;9.752;2023-01-26T07:32:53;101664.69;;;-1.50;100.00
72560;BME280;62987;52.382;9.752;2023-01-26T07:35:21;101660.22;;;-1.54;100.00
72560;BME280;62987;52.382;9.752;2023-01-26T07:37:49;101656.75;;;-1.54;100.00
72560;BME280;62987;52.382;9.752;2023-01-26T07:40:17;101659.38;;;-1.53;100.00
72560;BME280;62987;52.382;9.752;2023-01-26T07:42:45;101661.16;;;-1.52;100.00
72560;BME280;62987;52.382;9.752;2023-01-26T07:45:43;101625.94;;;-1.72;100.00
72560;BME280;62987;52.382;9.752;2023-01-26T07:48:12;101670.78;;;-1.49;100.00
72560;BME280;62987;52.382;9.752;2023-01-26T07:50:40;101662.16;;;-1.45;100.00
72560;BME280;62987;52.382;9.752;2023-01-26T07:53:08;101659.56;;;-1.45;100.00
72560;BME280;62987;52.382;9.752;2023-01-26T07:55:38;101665.75;;;-1.40;100.00
72560;BME280;62987;52.382;9.752;2023-01-26T07:58:06;101650.00;;;-1.45;100.00
72560;BME280;62987;52.382;9.752;2023-01-26T08:00:34;101661.50;;;-1.37;100.00
72560;BME280;62987;52.382;9.752;2023-01-26T08:03:04;101660.81;;;-1.28;100.00
72560;BME280;62987;52.382;9.752;2023-01-26T08:05:32;101661.69;;;-1.28;100.00
72560;BME280;62987;52.382;9.752;2023-01-26T08:08:01;101665.25;;;-1.23;100.00
72560;BME280;62987;52.382;9.752;2023-01-26T08:10:29;101669.59;;;-1.23;100.00
72560;BME280;62987;52.382;9.752;2023-01-26T08:12:58;101663.53;;;-1.24;100.00
72560;BME280;62987;52.382;9.752;2023-01-26T08:15:26;101665.25;;;-1.23;100.00
72560;BME280;62987;52.382;9.752;2023-01-26T08:17:55;101657.44;;;-1.24;100.00
72560;BME280;62987;52.382;9.752;2023-01-26T08:20:24;101676.69;;;-1.17;100.00
72560;BME280;62987;52.382;9.752;2023-01-26T08:22:52;101683.59;;;-1.19;100.00
72560;BME280;62987;52.382;9.752;2023-01-26T08:25:20;101660.81;;;-1.28;100.00
72560;BME280;62987;52.382;9.752;2023-01-26T08:27:48;101676.78;;;-1.13;100.00
72560;BME280;62987;52.382;9.752;2023-01-26T08:30:16;101668.78;;;-1.21;100.00
72560;BME280;62987;52.382;9.752;2023-01-26T08:32:44;101681.03;;;-1.16;100.00
72560;BME280;62987;52.382;9.752;2023-01-26T08:35:12;101687.13;;;-1.17;100.00
72560;BME280;62987;52.382;9.752;2023-01-26T08:37:42;101691.47;;;-1.16;100.00
72560;BME280;62987;52.382;9.752;2023-01-26T08:40:11;101693.19;;;-1.18;100.00
72560;BME280;62987;52.382;9.752;2023-01-26T08:42:39;101693.25;;;-1.17;100.00
72560;BME280;62987;52.382;9.752;2023-01-26T08:45:08;101686.25;;;-1.16;100.00
72560;BME280;62987;52.382;9.752;2023-01-26T08:47:36;101681.88;;;-1.19;100.00
72560;BME280;62987;52.382;9.752;2023-01-26T08:50:08;101679.31;;;-1.17;100.00
72560;BME280;62987;52.382;9.752;2023-01-26T08:52:37;101683.56;;;-1.21;100.00
72560;BME280;62987;52.382;9.752;2023-01-26T08:55:07;101683.59;;;-1.19;100.00
72560;BME280;62987;52.382;9.752;2023-01-26T08:57:35;101683.47;;;-1.26;100.00
72560;BME280;62987;52.382;9.752;2023-01-26T09:00:04;101692.31;;;-1.19;100.00
72560;BME280;62987;52.382;9.752;2023-01-26T09:02:32;101693.25;;;-1.15;100.00
72560;BME280;62987;52.382;9.752;2023-01-26T09:05:01;101686.25;;;-1.16;100.00
72560;BME280;62987;52.382;9.752;2023-01-26T09:07:29;101685.41;;;-1.15;100.00
72560;BME280;62987;52.382;9.752;2023-01-26T09:09:56;101686.47;;;-1.07;100.00
72560;BME280;62987;52.382;9.752;2023-01-26T09:12:26;101685.69;;;-1.03;100.00
72560;BME280;62987;52.382;9.752;2023-01-26T09:14:54;101675.41;;;-0.96;100.00
72560;BME280;62987;52.382;9.752;2023-01-26T09:17:22;101687.72;;;-0.89;100.00
72560;BME280;62987;52.382;9.752;2023-01-26T09:19:50;101689.38;;;-0.94;100.00
72560;BME280;62987;52.382;9.752;2023-01-26T09:22:18;101695.59;;;-0.87;100.00
72560;BME280;62987;52.382;9.752;2023-01-26T09:24:46;101689.56;;;-0.85;100.00
72560;BME280;62987;52.382;9.752;2023-01-26T09:27:14;101690.38;;;-0.87;100.00
72560;BME280;62987;52.382;9.752;2023-01-26T09:29:43;101690.47;;;-0.83;100.00
72560;BME280;62987;52.382;9.752;2023-01-26T09:32:11;101693.94;;;-0.82;100.00
72560;BME280;62987;52.382;9.752;2023-01-26T09:34:39;101690.50;;;-0.81;100.00
72560;BME280;62987;52.382;9.752;2023-01-26T09:37:10;101692.31;;;-0.78;100.00
72560;BME280;62987;52.382;9.752;2023-01-26T09:39:38;101672.25;;;-0.79;100.00
72560;BME280;62987;52.382;9.752;2023-01-26T09:42:29;101683.69;;;-0.73;100.00
72560;BME280;62987;52.382;9.752;2023-01-26T09:45:11;101687.28;;;-0.68;100.00
72560;BME280;62987;52.382;9.752;2023-01-26T09:47:54;101689.16;;;-0.61;100.00
72560;BME280;62987;52.382;9.752;2023-01-26T09:50:28;101652.28;;;-0.76;100.00
72560;BME280;62987;52.382;9.752;2023-01-26T09:53:01;101681.13;;;-0.70;100.00
72560;BME280;62987;52.382;9.752;2023-01-26T09:55:30;101674.13;;;-0.72;100.00
72560;BME280;62987;52.382;9.752;2023-01-26T09:58:00;101630.06;;;-1.01;100.00
72560;BME280;62987;52.382;9.752;2023-01-26T10:00:34;101669.72;;;-0.75;100.00
72560;BME280;62987;52.382;9.752;2023-01-26T10:03:12;101671.50;;;-0.74;100.00
72560;BME280;62987;52.382;9.752;2023-01-26T10:05:46;101672.34;;;-0.75;100.00
72560;BME280;62987;52.382;9.752;2023-01-26T10:08:37;101676.75;;;-0.71;100.00
72560;BME280;62987;52.382;9.752;2023-01-26T10:11:12;101674.03;;;-0.77;100.00
72560;BME280;62987;52.382;9.752;2023-01-26T10:13:47;101666.19;;;-0.77;100.00
72560;BME280;62987;52.382;9.752;2023-01-26T10:16:18;101672.53;;;-0.66;100.00
72560;BME280;62987;52.382;9.752;2023-01-26T10:18:53;101659.41;;;-0.69;100.00
72560;BME280;62987;52.382;9.752;2023-01-26T10:21:24;101670.06;;;-0.57;100.00
72560;BME280;62987;52.382;9.752;2023-01-26T10:23:54;101642.72;;;-0.75;100.00
72560;BME280;62987;52.382;9.752;2023-01-26T10:26:22;101667.44;;;-0.57;100.00
72560;BME280;62987;52.382;9.752;2023-01-26T10:28:51;101657.00;;;-0.57;100.00
72560;BME280;62987;52.382;9.752;2023-01-26T10:31:22;101659.81;;;-0.48;100.00
72560;BME280;62987;52.382;9.752;2023-01-26T10:33:53;101650.16;;;-0.50;100.00
72560;BME280;62987;52.382;9.752;2023-01-26T10:36:22;101663.34;;;-0.46;100.00
72560;BME280;62987;52.382;9.752;2023-01-26T10:38:51;101653.00;;;-0.39;100.00
72560;BME280;62987;52.382;9.752;2023-01-26T10:41:24;101650.56;;;-0.29;100.00
72560;BME280;62987;52.382;9.752;2023-01-26T10:43:54;101638.44;;;-0.24;100.00
72560;BME280;62987;52.382;9.752;2023-01-26T10:46:30;101636.63;;;-0.28;100.00
72560;BME280;62987;52.382;9.752;2023-01-26T10:49:00;101641.00;;;-0.25;100.00
72560;BME280;62987;52.382;9.752;2023-01-26T10:51:30;101635.66;;;-0.34;100.00
72560;BME280;62987;52.382;9.752;2023-01-26T10:54:13;101630.56;;;-0.25;100.00
72560;BME280;62987;52.382;9.752;2023-01-26T10:56:43;101628.88;;;-0.23;100.00
72560;BME280;62987;52.382;9.752;2023-01-26T10:59:15;101632.31;;;-0.24;100.00
72560;BME280;62987;52.382;9.752;2023-01-26T11:01:54;101626.28;;;-0.22;100.00
72560;BME280;62987;52.382;9.752;2023-01-26T11:04:24;101626.91;;;-0.36;100.00
72560;BME280;62987;52.382;9.752;2023-01-26T11:07:14;101623.56;;;-0.28;100.00
72560;BME280;62987;52.382;9.752;2023-01-26T11:09:49;101625.25;;;-0.30;100.00
72560;BME280;62987;52.382;9.752;2023-01-26T11:12:20;101623.34;;;-0.42;100.00
72560;BME280;62987;52.382;9.752;2023-01-26T11:14:59;101626.78;;;-0.43;100.00
72560;BME280;62987;52.382;9.752;2023-01-26T11:17:33;101618.13;;;-0.38;100.00
72560;BME280;62987;52.382;9.752;2023-01-26T11:20:24;101614.69;;;-0.37;100.00
72560;BME280;62987;52.382;9.752;2023-01-26T11:23:01;101617.31;;;-0.36;100.00
72560;BME280;62987;52.382;9.752;2023-01-26T11:25:34;101609.56;;;-0.31;100.00
72560;BME280;62987;52.382;9.752;2023-01-26T11:28:19;101611.41;;;-0.24;100.00
72560;BME280;62987;52.382;9.752;2023-01-26T11:31:05;101612.97;;;-0.35;100.00
72560;BME280;62987;52.382;9.752;2023-01-26T11:33:48;101605.09;;;-0.37;100.00
72560;BME280;62987;52.382;9.752;2023-01-26T11:36:24;101613.09;;;-0.29;100.00
72560;BME280;62987;52.382;9.752;2023-01-26T11:39:01;101613.09;;;-0.29;100.00
72560;BME280;62987;52.382;9.752;2023-01-26T11:41:42;101604.28;;;-0.34;100.00
72560;BME280;62987;52.382;9.752;2023-01-26T11:44:22;101584.16;;;-0.38;100.00
72560;BME280;62987;52.382;9.752;2023-01-26T11:47:12;101604.47;;;-0.24;100.00
72560;BME280;62987;52.382;9.752;2023-01-26T11:50:00;101594.75;;;-0.31;100.00
72560;BME280;62987;52.382;9.752;2023-01-26T11:52:49;101591.34;;;-0.27;100.00
72560;BME280;62987;52.382;9.752;2023-01-26T11:55:24;101576.50;;;-0.29;100.00
72560;BME280;62987;52.382;9.752;2023-01-26T11:58:06;101588.81;;;-0.22;100.00
72560;BME280;62987;52.382;9.752;2023-01-26T12:00:40;101589.41;;;-0.38;100.00
72560;BME280;62987;52.382;9.752;2023-01-26T12:03:18;101585.97;;;-0.36;100.00
72560;BME280;62987;52.382;9.752;2023-01-26T12:05:53;101579.09;;;-0.29;100.00
72560;BME280;62987;52.382;9.752;2023-01-26T12:08:25;101590.47;;;-0.27;100.00
72560;BME280;62987;52.382;9.752;2023-01-26T12:11:07;101585.16;;;-0.33;100.00
72560;BME280;62987;52.382;9.752;2023-01-26T12:14:03;101583.44;;;-0.30;100.00
72560;BME280;62987;52.382;9.752;2023-01-26T12:16:39;101585.19;;;-0.30;100.00
72560;BME280;62987;52.382;9.752;2023-01-26T12:19:27;101579.94;;;-0.33;100.00
72560;BME280;62987;52.382;9.752;2023-01-26T12:22:05;101581.66;;;-0.34;100.00
72560;BME280;62987;52.382;9.752;2023-01-26T12:24:41;101573.84;;;-0.32;100.00
72560;BME280;62987;52.382;9.752;2023-01-26T12:27:33;101548.41;;;-0.43;100.00
72560;BME280;62987;52.382;9.752;2023-01-26T12:30:10;101575.59;;;-0.33;100.00
72560;BME280;62987;52.382;9.752;2023-01-26T12:32:48;101571.22;;;-0.31;100.00
72560;BME280;62987;52.382;9.752;2023-01-26T12:35:26;101551.94;;;-0.41;100.00
72560;BME280;62987;52.382;9.752;2023-01-26T12:38:02;101568.75;;;-0.23;100.00
72560;BME280;62987;52.382;9.752;2023-01-26T12:40:52;101561.66;;;-0.30;100.00
72560;BME280;62987;52.382;9.752;2023-01-26T12:43:37;101550.34;;;-0.32;100.00
72560;BME280;62987;52.382;9.752;2023-01-26T12:46:09;101546.75;;;-0.37;100.00
72560;BME280;62987;52.382;9.752;2023-01-26T12:48:41;101546.84;;;-0.31;100.00
72560;BME280;62987;52.382;9.752;2023-01-26T12:51:14;101548.56;;;-0.32;100.00
72560;BME280;62987;52.382;9.752;2023-01-26T12:53:53;101541.50;;;-0.37;100.00
72560;BME280;62987;52.382;9.752;2023-01-26T12:56:25;101542.41;;;-0.37;100.00
72560;BME280;62987;52.382;9.752;2023-01-26T12:58:56;101535.41;;;-0.39;100.00
72560;BME280;62987;52.382;9.752;2023-01-26T13:01:26;101539.78;;;-0.37;100.00
72560;BME280;62987;52.382;9.752;2023-01-26T13:04:07;101513.50;;;-0.48;100.00
72560;BME280;62987;52.382;9.752;2023-01-26T13:06:36;101541.59;;;-0.31;100.00
72560;BME280;62987;52.382;9.752;2023-01-26T13:09:19;101534.66;;;-0.32;100.00
72560;BME280;62987;52.382;9.752;2023-01-26T13:11:50;101525.84;;;-0.37;100.00
72560;BME280;62987;52.382;9.752;2023-01-26T13:14:33;101540.81;;;-0.27;100.00